sensor_id;sensor_type;location;lat;lon;timestamp;P1;durP1;ratioP1;P2;durP2;ratioP2
16504;SDS011;8365;51.030;4.696;2022-09-21T00:00:13;15.00;;;12.20;;
16504;SDS011;8365;51.030;4.696;2022-09-21T00:02:44;16.17;;;11.40;;
16504;SDS011;8365;51.030;4.696;2022-09-21T00:05:14;11.10;;;10.00;;
16504;SDS011;8365;51.030;4.696;2022-09-21T00:07:46;15.10;;;11.90;;
16504;SDS011;8365;51.030;4.696;2022-09-21T00:10:17;18.13;;;12.13;;
16504;SDS011;8365;51.030;4.696;2022-09-21T00:12:49;12.07;;;10.70;;
16504;SDS011;8365;51.030;4.696;2022-09-21T00:15:19;12.23;;;11.03;;
16504;SDS011;8365;51.030;4.696;2022-09-21T00:17:53;12.87;;;11.07;;
16504;SDS011;8365;51.030;4.696;2022-09-21T00:20:26;12.97;;;9.57;;
16504;SDS011;8365;51.030;4.696;2022-09-21T00:22:58;9.83;;;8.83;;
16504;SDS011;8365;51.030;4.696;2022-09-21T00:25:28;9.77;;;8.77;;
16504;SDS011;8365;51.030;4.696;2022-09-21T00:27:59;9.43;;;8.50;;
16504;SDS011;8365;51.030;4.696;2022-09-21T00:30:32;12.57;;;8.23;;
16504;SDS011;8365;51.030;4.696;2022-09-21T00:33:02;9.27;;;8.30;;
16504;SDS011;8365;51.030;4.696;2022-09-21T00:35:33;9.30;;;8.30;;
16504;SDS011;8365;51.030;4.696;2022-09-21T00:38:03;10.20;;;9.07;;
16504;SDS011;8365;51.030;4.696;2022-09-21T00:40:34;10.07;;;8.47;;
16504;SDS011;8365;51.030;4.696;2022-09-21T00:43:12;9.87;;;8.87;;
16504;SDS011;8365;51.030;4.696;2022-09-21T00:45:44;9.63;;;8.53;;
16504;SDS011;8365;51.030;4.696;2022-09-21T00:48:17;9.53;;;8.47;;
16504;SDS011;8365;51.030;4.696;2022-09-21T00:50:48;9.83;;;8.83;;
16504;SDS011;8365;51.030;4.696;2022-09-21T00:53:23;10.70;;;8.93;;
16504;SDS011;8365;51.030;4.696;2022-09-21T00:55:54;10.90;;;9.90;;
16504;SDS011;8365;51.030;4.696;2022-09-21T00:58:34;10.70;;;9.70;;
16504;SDS011;8365;51.030;4.696;2022-09-21T01:01:09;10.17;;;8.93;;
16504;SDS011;8365;51.030;4.696;2022-09-21T01:03:47;10.20;;;8.67;;
16504;SDS011;8365;51.030;4.696;2022-09-21T01:06:21;10.37;;;9.30;;
16504;SDS011;8365;51.030;4.696;2022-09-21T01:08:54;10.80;;;9.47;;
16504;SDS011;8365;51.030;4.696;2022-09-21T01:11:41;9.93;;;9.07;;
16504;SDS011;8365;51.030;4.696;2022-09-21T01:31:27;11.40;;;9.23;;
16504;SDS011;8365;51.030;4.696;2022-09-21T01:37:24;13.07;;;9.70;;
16504;SDS011;8365;51.030;4.696;2022-09-21T01:40:27;10.30;;;9.30;;
16504;SDS011;8365;51.030;4.696;2022-09-21T01:43:01;10.77;;;9.00;;
16504;SDS011;8365;51.030;4.696;2022-09-21T01:45:34;10.00;;;8.80;;
16504;SDS011;8365;51.030;4.696;2022-09-21T01:48:09;12.73;;;9.17;;
16504;SDS011;8365;51.030;4.696;2022-09-21T01:50:46;11.37;;;8.40;;
16504;SDS011;8365;51.030;4.696;2022-09-21T01:53:27;10.63;;;9.27;;
16504;SDS011;8365;51.030;4.696;2022-09-21T01:58:46;12.03;;;9.13;;
16504;SDS011;8365;51.030;4.696;2022-09-21T02:01:28;10.37;;;8.77;;
16504;SDS011;8365;51.030;4.696;2022-09-21T02:04:04;14.40;;;8.00;;
16504;SDS011;8365;51.030;4.696;2022-09-21T02:06:39;10.13;;;9.10;;
16504;SDS011;8365;51.030;4.696;2022-09-21T02:09:13;9.77;;;8.77;;
16504;SDS011;8365;51.030;4.696;2022-09-21T02:11:44;9.70;;;8.47;;
16504;SDS011;8365;51.030;4.696;2022-09-21T02:14:15;11.53;;;9.53;;
16504;SDS011;8365;51.030;4.696;2022-09-21T02:19:44;10.77;;;9.60;;
16504;SDS011;8365;51.030;4.696;2022-09-21T02:23:06;11.13;;;9.70;;
16504;SDS011;8365;51.030;4.696;2022-09-21T02:25:18;11.43;;;9.60;;
16504;SDS011;8365;51.030;4.696;2022-09-21T02:28:10;10.93;;;9.20;;
16504;SDS011;8365;51.030;4.696;2022-09-21T02:31:17;12.10;;;10.00;;
16504;SDS011;8365;51.030;4.696;2022-09-21T02:34:00;13.20;;;9.87;;
16504;SDS011;8365;51.030;4.696;2022-09-21T02:36:54;10.30;;;9.30;;
16504;SDS011;8365;51.030;4.696;2022-09-21T02:39:33;12.03;;;9.97;;
16504;SDS011;8365;51.030;4.696;2022-09-21T02:42:13;10.37;;;9.03;;
16504;SDS011;8365;51.030;4.696;2022-09-21T02:44:50;10.40;;;9.30;;
16504;SDS011;8365;51.030;4.696;2022-09-21T02:47:28;10.73;;;9.63;;
16504;SDS011;8365;51.030;4.696;2022-09-21T02:50:09;10.67;;;9.67;;
16504;SDS011;8365;51.030;4.696;2022-09-21T02:52:46;10.23;;;9.07;;
16504;SDS011;8365;51.030;4.696;2022-09-21T02:55:16;15.43;;;11.00;;
16504;SDS011;8365;51.030;4.696;2022-09-21T02:57:47;14.03;;;11.47;;
16504;SDS011;8365;51.030;4.696;2022-09-21T03:00:19;13.57;;;11.13;;
16504;SDS011;8365;51.030;4.696;2022-09-21T03:02:51;12.70;;;11.00;;
16504;SDS011;8365;51.030;4.696;2022-09-21T03:05:22;12.40;;;10.77;;
16504;SDS011;8365;51.030;4.696;2022-09-21T03:07:52;13.50;;;10.27;;
16504;SDS011;8365;51.030;4.696;2022-09-21T03:10:25;11.43;;;10.23;;
16504;SDS011;8365;51.030;4.696;2022-09-21T03:12:56;14.37;;;10.60;;
16504;SDS011;8365;51.030;4.696;2022-09-21T03:15:28;12.33;;;9.87;;
16504;SDS011;8365;51.030;4.696;2022-09-21T03:17:58;13.13;;;10.20;;
16504;SDS011;8365;51.030;4.696;2022-09-21T03:20:30;10.80;;;9.50;;
16504;SDS011;8365;51.030;4.696;2022-09-21T03:23:01;10.97;;;9.87;;
16504;SDS011;8365;51.030;4.696;2022-09-21T03:25:32;10.60;;;9.50;;
16504;SDS011;8365;51.030;4.696;2022-09-21T03:28:02;10.70;;;9.60;;
16504;SDS011;8365;51.030;4.696;2022-09-21T03:30:33;10.33;;;8.93;;
16504;SDS011;8365;51.030;4.696;2022-09-21T03:33:04;10.10;;;9.10;;
16504;SDS011;8365;51.030;4.696;2022-09-21T03:35:35;9.70;;;8.00;;
16504;SDS011;8365;51.030;4.696;2022-09-21T03:38:05;9.67;;;8.77;;
16504;SDS011;8365;51.030;4.696;2022-09-21T03:40:36;10.90;;;8.63;;
16504;SDS011;8365;51.030;4.696;2022-09-21T03:43:06;9.47;;;8.23;;
16504;SDS011;8365;51.030;4.696;2022-09-21T03:45:37;12.13;;;8.20;;
16504;SDS011;8365;51.030;4.696;2022-09-21T03:48:11;10.20;;;8.67;;
16504;SDS011;8365;51.030;4.696;2022-09-21T03:50:41;9.63;;;7.93;;
16504;SDS011;8365;51.030;4.696;2022-09-21T03:53:12;12.23;;;9.23;;
16504;SDS011;8365;51.030;4.696;2022-09-21T03:55:43;9.07;;;7.93;;
16504;SDS011;8365;51.030;4.696;2022-09-21T03:58:13;10.03;;;8.57;;
16504;SDS011;8365;51.030;4.696;2022-09-21T04:00:44;11.87;;;8.07;;
16504;SDS011;8365;51.030;4.696;2022-09-21T04:03:15;9.60;;;8.70;;
16504;SDS011;8365;51.030;4.696;2022-09-21T04:05:46;10.03;;;8.57;;
16504;SDS011;8365;51.030;4.696;2022-09-21T04:08:16;8.40;;;7.47;;
16504;SDS011;8365;51.030;4.696;2022-09-21T04:10:49;10.20;;;8.93;;
16504;SDS011;8365;51.030;4.696;2022-09-21T04:13:19;15.17;;;9.13;;
16504;SDS011;8365;51.030;4.696;2022-09-21T04:15:50;11.73;;;9.10;;
16504;SDS011;8365;51.030;4.696;2022-09-21T04:18:20;11.30;;;10.20;;
16504;SDS011;8365;51.030;4.696;2022-09-21T04:20:50;10.77;;;9.37;;
16504;SDS011;8365;51.030;4.696;2022-09-21T04:23:23;11.50;;;9.93;;
16504;SDS011;8365;51.030;4.696;2022-09-21T04:25:56;12.50;;;10.43;;
16504;SDS011;8365;51.030;4.696;2022-09-21T04:28:27;13.40;;;10.43;;
16504;SDS011;8365;51.030;4.696;2022-09-21T04:30:58;14.07;;;10.47;;
16504;SDS011;8365;51.030;4.696;2022-09-21T04:33:28;17.67;;;12.20;;
16504;SDS011;8365;51.030;4.696;2022-09-21T04:35:59;16.07;;;12.17;;
16504;SDS011;8365;51.030;4.696;2022-09-21T04:38:30;18.70;;;12.23;;
16504;SDS011;8365;51.030;4.696;2022-09-21T04:41:01;15.10;;;12.57;;
16504;SDS011;8365;51.030;4.696;2022-09-21T04:43:32;13.93;;;11.73;;
16504;SDS011;8365;51.030;4.696;2022-09-21T04:46:03;17.47;;;11.93;;
16504;SDS011;8365;51.030;4.696;2022-09-21T04:48:37;14.07;;;11.77;;
16504;SDS011;8365;51.030;4.696;2022-09-21T04:51:08;15.13;;;12.07;;
16504;SDS011;8365;51.030;4.696;2022-09-21T04:53:40;13.03;;;11.43;;
16504;SDS011;8365;51.030;4.696;2022-09-21T04:56:14;14.37;;;11.60;;
16504;SDS011;8365;51.030;4.696;2022-09-21T04:58:45;14.63;;;10.90;;
16504;SDS011;8365;51.030;4.696;2022-09-21T05:01:18;15.10;;;11.40;;
16504;SDS011;8365;51.030;4.696;2022-09-21T05:03:48;20.80;;;10.93;;
16504;SDS011;8365;51.030;4.696;2022-09-21T05:06:19;18.37;;;10.30;;
16504;SDS011;8365;51.030;4.696;2022-09-21T05:08:49;24.33;;;11.40;;
16504;SDS011;8365;51.030;4.696;2022-09-21T05:11:38;19.97;;;11.67;;
16504;SDS011;8365;51.030;4.696;2022-09-21T05:14:09;17.10;;;12.10;;
16504;SDS011;8365;51.030;4.696;2022-09-21T05:16:40;22.40;;;12.37;;
16504;SDS011;8365;51.030;4.696;2022-09-21T05:19:11;26.80;;;11.87;;
16504;SDS011;8365;51.030;4.696;2022-09-21T05:21:41;19.63;;;11.73;;
16504;SDS011;8365;51.030;4.696;2022-09-21T05:24:12;15.70;;;11.90;;
16504;SDS011;8365;51.030;4.696;2022-09-21T05:26:42;23.63;;;11.87;;
16504;SDS011;8365;51.030;4.696;2022-09-21T05:29:13;22.07;;;10.97;;
16504;SDS011;8365;51.030;4.696;2022-09-21T05:32:04;34.23;;;13.80;;
16504;SDS011;8365;51.030;4.696;2022-09-21T05:34:44;23.93;;;12.17;;
16504;SDS011;8365;51.030;4.696;2022-09-21T05:37:36;36.13;;;12.40;;
16504;SDS011;8365;51.030;4.696;2022-09-21T05:40:22;17.40;;;11.00;;
16504;SDS011;8365;51.030;4.696;2022-09-21T05:42:53;31.53;;;11.87;;
16504;SDS011;8365;51.030;4.696;2022-09-21T05:45:25;24.57;;;11.00;;
16504;SDS011;8365;51.030;4.696;2022-09-21T05:56:23;29.80;;;12.20;;
16504;SDS011;8365;51.030;4.696;2022-09-21T06:05:25;20.53;;;12.43;;
16504;SDS011;8365;51.030;4.696;2022-09-21T06:07:55;33.27;;;22.07;;
16504;SDS011;8365;51.030;4.696;2022-09-21T06:10:26;22.63;;;20.17;;
16504;SDS011;8365;51.030;4.696;2022-09-21T06:13:02;27.47;;;21.97;;
16504;SDS011;8365;51.030;4.696;2022-09-21T06:15:33;26.77;;;21.23;;
16504;SDS011;8365;51.030;4.696;2022-09-21T06:18:07;26.83;;;19.97;;
16504;SDS011;8365;51.030;4.696;2022-09-21T06:20:38;24.23;;;18.73;;
16504;SDS011;8365;51.030;4.696;2022-09-21T06:23:09;23.13;;;17.17;;
16504;SDS011;8365;51.030;4.696;2022-09-21T06:25:43;23.60;;;17.73;;
16504;SDS011;8365;51.030;4.696;2022-09-21T06:28:14;28.60;;;19.43;;
16504;SDS011;8365;51.030;4.696;2022-09-21T06:30:48;25.07;;;19.70;;
16504;SDS011;8365;51.030;4.696;2022-09-21T06:33:20;27.80;;;20.47;;
16504;SDS011;8365;51.030;4.696;2022-09-21T06:35:53;27.90;;;19.63;;
16504;SDS011;8365;51.030;4.696;2022-09-21T06:38:26;24.80;;;17.73;;
16504;SDS011;8365;51.030;4.696;2022-09-21T06:41:01;26.40;;;18.90;;
16504;SDS011;8365;51.030;4.696;2022-09-21T06:43:33;24.37;;;18.30;;
16504;SDS011;8365;51.030;4.696;2022-09-21T06:46:03;24.73;;;18.90;;
16504;SDS011;8365;51.030;4.696;2022-09-21T06:48:34;21.73;;;19.33;;
16504;SDS011;8365;51.030;4.696;2022-09-21T06:51:05;23.30;;;19.00;;
16504;SDS011;8365;51.030;4.696;2022-09-21T06:53:35;19.53;;;17.43;;
16504;SDS011;8365;51.030;4.696;2022-09-21T06:56:06;24.80;;;17.83;;
16504;SDS011;8365;51.030;4.696;2022-09-21T06:58:38;21.47;;;18.17;;
16504;SDS011;8365;51.030;4.696;2022-09-21T07:01:10;22.07;;;17.87;;
16504;SDS011;8365;51.030;4.696;2022-09-21T07:03:42;19.03;;;16.47;;
16504;SDS011;8365;51.030;4.696;2022-09-21T07:06:14;20.73;;;16.30;;
16504;SDS011;8365;51.030;4.696;2022-09-21T07:08:46;18.40;;;16.27;;
16504;SDS011;8365;51.030;4.696;2022-09-21T07:11:17;21.47;;;16.73;;
16504;SDS011;8365;51.030;4.696;2022-09-21T07:13:48;17.30;;;15.63;;
16504;SDS011;8365;51.030;4.696;2022-09-21T07:16:19;18.73;;;16.83;;
16504;SDS011;8365;51.030;4.696;2022-09-21T07:18:50;18.83;;;16.83;;
16504;SDS011;8365;51.030;4.696;2022-09-21T07:21:20;19.80;;;17.60;;
16504;SDS011;8365;51.030;4.696;2022-09-21T07:23:51;19.43;;;17.37;;
16504;SDS011;8365;51.030;4.696;2022-09-21T07:26:21;21.17;;;17.03;;
16504;SDS011;8365;51.030;4.696;2022-09-21T07:28:54;19.37;;;17.30;;
16504;SDS011;8365;51.030;4.696;2022-09-21T07:31:25;19.70;;;17.67;;
16504;SDS011;8365;51.030;4.696;2022-09-21T07:33:57;20.20;;;16.97;;
16504;SDS011;8365;51.030;4.696;2022-09-21T07:36:28;21.13;;;17.87;;
16504;SDS011;8365;51.030;4.696;2022-09-21T07:38:59;18.30;;;16.40;;
16504;SDS011;8365;51.030;4.696;2022-09-21T07:41:29;19.07;;;17.23;;
16504;SDS011;8365;51.030;4.696;2022-09-21T07:44:07;19.30;;;17.30;;
16504;SDS011;8365;51.030;4.696;2022-09-21T07:46:37;18.13;;;15.83;;
16504;SDS011;8365;51.030;4.696;2022-09-21T07:49:09;20.73;;;15.60;;
16504;SDS011;8365;51.030;4.696;2022-09-21T07:51:41;18.00;;;14.50;;
16504;SDS011;8365;51.030;4.696;2022-09-21T07:54:13;18.33;;;15.70;;
16504;SDS011;8365;51.030;4.696;2022-09-21T07:56:44;17.33;;;14.90;;
16504;SDS011;8365;51.030;4.696;2022-09-21T07:59:35;16.53;;;14.33;;
16504;SDS011;8365;51.030;4.696;2022-09-21T08:02:05;15.23;;;13.20;;
16504;SDS011;8365;51.030;4.696;2022-09-21T08:04:36;16.80;;;13.70;;
16504;SDS011;8365;51.030;4.696;2022-09-21T08:07:06;15.53;;;13.30;;
16504;SDS011;8365;51.030;4.696;2022-09-21T08:09:37;16.17;;;14.50;;
16504;SDS011;8365;51.030;4.696;2022-09-21T08:12:07;23.33;;;16.13;;
16504;SDS011;8365;51.030;4.696;2022-09-21T08:14:38;20.53;;;17.77;;
16504;SDS011;8365;51.030;4.696;2022-09-21T08:17:08;24.17;;;21.57;;
16504;SDS011;8365;51.030;4.696;2022-09-21T08:19:38;22.53;;;20.33;;
16504;SDS011;8365;51.030;4.696;2022-09-21T08:22:09;21.60;;;19.42;;
16504;SDS011;8365;51.030;4.696;2022-09-21T08:24:41;21.27;;;19.27;;
16504;SDS011;8365;51.030;4.696;2022-09-21T08:27:13;19.50;;;16.73;;
16504;SDS011;8365;51.030;4.696;2022-09-21T08:29:43;17.00;;;15.30;;
16504;SDS011;8365;51.030;4.696;2022-09-21T08:32:15;17.67;;;14.27;;
16504;SDS011;8365;51.030;4.696;2022-09-21T08:34:45;15.18;;;13.63;;
16504;SDS011;8365;51.030;4.696;2022-09-21T08:37:15;13.60;;;12.23;;
16504;SDS011;8365;51.030;4.696;2022-09-21T08:39:48;13.95;;;12.40;;
16504;SDS011;8365;51.030;4.696;2022-09-21T08:45:10;14.70;;;11.80;;
16504;SDS011;8365;51.030;4.696;2022-09-21T08:47:46;14.93;;;11.95;;
16504;SDS011;8365;51.030;4.696;2022-09-21T08:52:51;13.07;;;11.35;;
16504;SDS011;8365;51.030;4.696;2022-09-21T08:55:32;13.57;;;11.52;;
16504;SDS011;8365;51.030;4.696;2022-09-21T08:58:03;11.60;;;10.45;;
16504;SDS011;8365;51.030;4.696;2022-09-21T09:00:39;11.57;;;10.35;;
16504;SDS011;8365;51.030;4.696;2022-09-21T09:06:19;11.27;;;9.95;;
16504;SDS011;8365;51.030;4.696;2022-09-21T09:09:02;16.20;;;9.60;;
16504;SDS011;8365;51.030;4.696;2022-09-21T09:17:52;8.85;;;7.95;;
16504;SDS011;8365;51.030;4.696;2022-09-21T09:26:02;8.98;;;8.00;;
16504;SDS011;8365;51.030;4.696;2022-09-21T09:28:42;8.88;;;7.97;;
16504;SDS011;8365;51.030;4.696;2022-09-21T09:31:23;8.13;;;7.32;;
16504;SDS011;8365;51.030;4.696;2022-09-21T09:37:12;8.05;;;7.05;;
16504;SDS011;8365;51.030;4.696;2022-09-21T09:39:47;8.05;;;6.80;;
16504;SDS011;8365;51.030;4.696;2022-09-21T09:47:57;7.32;;;6.22;;
16504;SDS011;8365;51.030;4.696;2022-09-21T09:50:42;7.25;;;5.93;;
16504;SDS011;8365;51.030;4.696;2022-09-21T09:53:14;12.20;;;6.40;;
16504;SDS011;8365;51.030;4.696;2022-09-21T09:55:50;9.32;;;6.00;;
16504;SDS011;8365;51.030;4.696;2022-09-21T10:01:05;7.23;;;5.77;;
16504;SDS011;8365;51.030;4.696;2022-09-21T10:03:36;8.53;;;6.17;;
16504;SDS011;8365;51.030;4.696;2022-09-21T10:06:11;8.80;;;6.07;;
16504;SDS011;8365;51.030;4.696;2022-09-21T10:08:59;5.67;;;4.70;;
16504;SDS011;8365;51.030;4.696;2022-09-21T10:11:33;6.47;;;5.77;;
16504;SDS011;8365;51.030;4.696;2022-09-21T10:14:09;6.77;;;5.37;;
16504;SDS011;8365;51.030;4.696;2022-09-21T10:16:48;7.70;;;5.47;;
16504;SDS011;8365;51.030;4.696;2022-09-21T10:19:23;6.80;;;2.90;;
16504;SDS011;8365;51.030;4.696;2022-09-21T10:21:56;3.88;;;3.50;;
16504;SDS011;8365;51.030;4.696;2022-09-21T10:24:33;6.70;;;3.97;;
16504;SDS011;8365;51.030;4.696;2022-09-21T10:29:44;5.68;;;2.63;;
16504;SDS011;8365;51.030;4.696;2022-09-21T10:37:43;5.20;;;2.83;;
16504;SDS011;8365;51.030;4.696;2022-09-21T10:42:50;4.68;;;2.40;;
16504;SDS011;8365;51.030;4.696;2022-09-21T10:45:28;4.95;;;2.10;;
16504;SDS011;8365;51.030;4.696;2022-09-21T10:50:36;4.00;;;1.83;;
16504;SDS011;8365;51.030;4.696;2022-09-21T10:53:23;2.75;;;1.73;;
16504;SDS011;8365;51.030;4.696;2022-09-21T10:58:34;8.30;;;2.10;;
16504;SDS011;8365;51.030;4.696;2022-09-21T11:01:09;5.43;;;2.72;;
16504;SDS011;8365;51.030;4.696;2022-09-21T11:06:33;4.22;;;2.28;;
16504;SDS011;8365;51.030;4.696;2022-09-21T11:09:12;4.13;;;1.85;;
16504;SDS011;8365;51.030;4.696;2022-09-21T11:12:45;4.70;;;2.42;;
16504;SDS011;8365;51.030;4.696;2022-09-21T11:17:59;4.15;;;2.25;;
16504;SDS011;8365;51.030;4.696;2022-09-21T11:26:26;1.98;;;1.80;;
16504;SDS011;8365;51.030;4.696;2022-09-21T11:29:07;5.65;;;1.60;;
16504;SDS011;8365;51.030;4.696;2022-09-21T11:34:48;2.13;;;1.40;;
16504;SDS011;8365;51.030;4.696;2022-09-21T11:40:55;4.88;;;1.95;;
16504;SDS011;8365;51.030;4.696;2022-09-21T11:46:44;3.50;;;1.90;;
16504;SDS011;8365;51.030;4.696;2022-09-21T11:52:33;2.72;;;1.70;;
16504;SDS011;8365;51.030;4.696;2022-09-21T11:55:15;4.38;;;1.67;;
16504;SDS011;8365;51.030;4.696;2022-09-21T12:12:30;5.88;;;1.90;;
16504;SDS011;8365;51.030;4.696;2022-09-21T12:18:32;4.10;;;1.88;;
16504;SDS011;8365;51.030;4.696;2022-09-21T12:21:02;2.78;;;1.75;;
16504;SDS011;8365;51.030;4.696;2022-09-21T12:23:50;5.63;;;1.80;;
16504;SDS011;8365;51.030;4.696;2022-09-21T12:26:27;2.33;;;1.73;;
16504;SDS011;8365;51.030;4.696;2022-09-21T12:29:04;2.55;;;1.50;;
16504;SDS011;8365;51.030;4.696;2022-09-21T12:34:51;3.08;;;1.90;;
16504;SDS011;8365;51.030;4.696;2022-09-21T12:37:27;2.45;;;1.60;;
16504;SDS011;8365;51.030;4.696;2022-09-21T12:40:18;2.47;;;1.80;;
16504;SDS011;8365;51.030;4.696;2022-09-21T12:43:15;3.92;;;1.80;;
16504;SDS011;8365;51.030;4.696;2022-09-21T12:45:59;2.72;;;1.85;;
16504;SDS011;8365;51.030;4.696;2022-09-21T12:48:33;3.47;;;1.63;;
16504;SDS011;8365;51.030;4.696;2022-09-21T12:51:13;3.80;;;1.70;;
16504;SDS011;8365;51.030;4.696;2022-09-21T12:53:45;2.65;;;1.70;;
16504;SDS011;8365;51.030;4.696;2022-09-21T12:59:24;1.95;;;1.50;;
16504;SDS011;8365;51.030;4.696;2022-09-21T13:11:09;3.50;;;1.55;;
16504;SDS011;8365;51.030;4.696;2022-09-21T13:13:44;5.00;;;1.80;;
16504;SDS011;8365;51.030;4.696;2022-09-21T13:16:29;3.17;;;1.60;;
16504;SDS011;8365;51.030;4.696;2022-09-21T13:19:20;2.38;;;1.30;;
16504;SDS011;8365;51.030;4.696;2022-09-21T13:30:37;3.53;;;1.80;;
16504;SDS011;8365;51.030;4.696;2022-09-21T13:38:27;3.13;;;1.50;;
16504;SDS011;8365;51.030;4.696;2022-09-21T13:47:02;2.03;;;1.50;;
16504;SDS011;8365;51.030;4.696;2022-09-21T13:51:51;4.53;;;1.65;;
16504;SDS011;8365;51.030;4.696;2022-09-21T13:54:49;2.58;;;1.77;;
16504;SDS011;8365;51.030;4.696;2022-09-21T14:02:43;3.15;;;1.95;;
16504;SDS011;8365;51.030;4.696;2022-09-21T14:07:59;3.28;;;1.90;;
16504;SDS011;8365;51.030;4.696;2022-09-21T14:10:33;3.25;;;2.03;;
16504;SDS011;8365;51.030;4.696;2022-09-21T14:13:20;3.80;;;1.80;;
16504;SDS011;8365;51.030;4.696;2022-09-21T14:16:08;3.83;;;1.77;;
16504;SDS011;8365;51.030;4.696;2022-09-21T14:18:57;3.05;;;1.60;;
16504;SDS011;8365;51.030;4.696;2022-09-21T14:21:29;4.30;;;2.00;;
16504;SDS011;8365;51.030;4.696;2022-09-21T14:29:16;3.50;;;1.75;;
16504;SDS011;8365;51.030;4.696;2022-09-21T14:32:10;3.10;;;2.15;;
16504;SDS011;8365;51.030;4.696;2022-09-21T14:34:46;2.90;;;1.98;;
16504;SDS011;8365;51.030;4.696;2022-09-21T14:40:03;4.20;;;1.95;;
16504;SDS011;8365;51.030;4.696;2022-09-21T14:42:45;4.63;;;2.08;;
16504;SDS011;8365;51.030;4.696;2022-09-21T14:45:17;5.60;;;1.92;;
16504;SDS011;8365;51.030;4.696;2022-09-21T15:02:21;4.47;;;1.83;;
16504;SDS011;8365;51.030;4.696;2022-09-21T15:11:23;1.60;;;1.45;;
16504;SDS011;8365;51.030;4.696;2022-09-21T15:16:41;5.05;;;1.92;;
16504;SDS011;8365;51.030;4.696;2022-09-21T15:21:49;4.25;;;1.90;;
16504;SDS011;8365;51.030;4.696;2022-09-21T15:24:24;3.42;;;2.00;;
16504;SDS011;8365;51.030;4.696;2022-09-21T15:27:01;5.22;;;1.95;;
16504;SDS011;8365;51.030;4.696;2022-09-21T15:29:40;3.30;;;1.83;;
16504;SDS011;8365;51.030;4.696;2022-09-21T15:35:05;4.93;;;2.95;;
16504;SDS011;8365;51.030;4.696;2022-09-21T15:37:46;5.20;;;2.05;;
16504;SDS011;8365;51.030;4.696;2022-09-21T15:43:05;3.33;;;1.70;;
16504;SDS011;8365;51.030;4.696;2022-09-21T15:48:35;2.78;;;1.75;;
16504;SDS011;8365;51.030;4.696;2022-09-21T15:51:17;3.58;;;1.50;;
16504;SDS011;8365;51.030;4.696;2022-09-21T15:53:57;2.65;;;1.75;;
16504;SDS011;8365;51.030;4.696;2022-09-21T15:56:37;2.50;;;1.60;;
16504;SDS011;8365;51.030;4.696;2022-09-21T15:59:14;3.33;;;1.83;;
16504;SDS011;8365;51.030;4.696;2022-09-21T16:01:51;3.00;;;1.63;;
16504;SDS011;8365;51.030;4.696;2022-09-21T16:04:26;3.20;;;1.75;;
16504;SDS011;8365;51.030;4.696;2022-09-21T16:06:59;3.67;;;2.10;;
16504;SDS011;8365;51.030;4.696;2022-09-21T16:09:43;3.90;;;2.00;;
16504;SDS011;8365;51.030;4.696;2022-09-21T16:12:27;3.33;;;1.60;;
16504;SDS011;8365;51.030;4.696;2022-09-21T16:15:13;3.33;;;1.73;;
16504;SDS011;8365;51.030;4.696;2022-09-21T16:20:52;3.30;;;1.70;;
16504;SDS011;8365;51.030;4.696;2022-09-21T16:23:23;2.60;;;1.70;;
16504;SDS011;8365;51.030;4.696;2022-09-21T16:25:59;3.33;;;1.80;;
16504;SDS011;8365;51.030;4.696;2022-09-21T16:28:39;3.58;;;2.10;;
16504;SDS011;8365;51.030;4.696;2022-09-21T16:38:55;5.38;;;2.05;;
16504;SDS011;8365;51.030;4.696;2022-09-21T16:41:29;3.38;;;1.83;;
16504;SDS011;8365;51.030;4.696;2022-09-21T16:44:09;4.70;;;1.90;;
16504;SDS011;8365;51.030;4.696;2022-09-21T16:46:42;3.33;;;1.98;;
16504;SDS011;8365;51.030;4.696;2022-09-21T16:49:14;4.28;;;2.22;;
16504;SDS011;8365;51.030;4.696;2022-09-21T16:51:48;2.78;;;1.90;;
16504;SDS011;8365;51.030;4.696;2022-09-21T16:54:19;4.22;;;1.90;;
16504;SDS011;8365;51.030;4.696;2022-09-21T16:56:54;1.83;;;1.67;;
16504;SDS011;8365;51.030;4.696;2022-09-21T16:59:26;5.68;;;2.00;;
16504;SDS011;8365;51.030;4.696;2022-09-21T17:01:57;3.60;;;2.00;;
16504;SDS011;8365;51.030;4.696;2022-09-21T17:04:30;4.88;;;2.60;;
16504;SDS011;8365;51.030;4.696;2022-09-21T17:07:03;4.45;;;2.50;;
16504;SDS011;8365;51.030;4.696;2022-09-21T17:09:35;2.97;;;2.33;;
16504;SDS011;8365;51.030;4.696;2022-09-21T17:12:07;3.50;;;2.60;;
16504;SDS011;8365;51.030;4.696;2022-09-21T17:14:40;6.10;;;3.08;;
16504;SDS011;8365;51.030;4.696;2022-09-21T17:17:18;3.72;;;2.00;;
16504;SDS011;8365;51.030;4.696;2022-09-21T17:19:52;4.70;;;2.75;;
16504;SDS011;8365;51.030;4.696;2022-09-21T17:22:22;7.20;;;2.60;;
16504;SDS011;8365;51.030;4.696;2022-09-21T17:24:54;4.00;;;2.50;;
16504;SDS011;8365;51.030;4.696;2022-09-21T17:27:24;5.60;;;2.75;;
16504;SDS011;8365;51.030;4.696;2022-09-21T17:29:55;4.90;;;2.50;;
16504;SDS011;8365;51.030;4.696;2022-09-21T17:32:32;4.30;;;2.60;;
16504;SDS011;8365;51.030;4.696;2022-09-21T17:35:16;3.35;;;2.00;;
16504;SDS011;8365;51.030;4.696;2022-09-21T17:37:56;6.47;;;2.50;;
16504;SDS011;8365;51.030;4.696;2022-09-21T17:40:27;3.80;;;2.30;;
16504;SDS011;8365;51.030;4.696;2022-09-21T17:46:04;5.97;;;2.97;;
16504;SDS011;8365;51.030;4.696;2022-09-21T17:48:42;2.83;;;2.53;;
16504;SDS011;8365;51.030;4.696;2022-09-21T17:51:12;5.33;;;3.07;;
16504;SDS011;8365;51.030;4.696;2022-09-21T17:54:03;7.77;;;2.93;;
16504;SDS011;8365;51.030;4.696;2022-09-21T17:56:35;6.80;;;3.37;;
16504;SDS011;8365;51.030;4.696;2022-09-21T17:59:32;6.40;;;3.40;;
16504;SDS011;8365;51.030;4.696;2022-09-21T18:02:17;4.97;;;3.03;;
16504;SDS011;8365;51.030;4.696;2022-09-21T18:04:52;6.10;;;3.50;;
16504;SDS011;8365;51.030;4.696;2022-09-21T18:07:29;3.60;;;3.20;;
16504;SDS011;8365;51.030;4.696;2022-09-21T18:10:00;5.13;;;3.47;;
16504;SDS011;8365;51.030;4.696;2022-09-21T18:12:41;4.63;;;3.50;;
16504;SDS011;8365;51.030;4.696;2022-09-21T18:15:52;5.73;;;3.43;;
16504;SDS011;8365;51.030;4.696;2022-09-21T18:18:45;4.87;;;3.40;;
16504;SDS011;8365;51.030;4.696;2022-09-21T18:21:50;4.23;;;2.97;;
16504;SDS011;8365;51.030;4.696;2022-09-21T18:24:26;4.77;;;3.30;;
16504;SDS011;8365;51.030;4.696;2022-09-21T18:27:02;6.33;;;3.90;;
16504;SDS011;8365;51.030;4.696;2022-09-21T18:29:32;5.43;;;3.33;;
16504;SDS011;8365;51.030;4.696;2022-09-21T18:34:56;7.10;;;3.83;;
16504;SDS011;8365;51.030;4.696;2022-09-21T18:45:32;6.13;;;3.70;;
16504;SDS011;8365;51.030;4.696;2022-09-21T18:53:47;5.07;;;3.47;;
16504;SDS011;8365;51.030;4.696;2022-09-21T18:56:21;5.03;;;4.20;;
16504;SDS011;8365;51.030;4.696;2022-09-21T18:58:53;5.13;;;4.10;;
16504;SDS011;8365;51.030;4.696;2022-09-21T19:01:27;5.80;;;4.10;;
16504;SDS011;8365;51.030;4.696;2022-09-21T19:04:02;5.60;;;3.80;;
16504;SDS011;8365;51.030;4.696;2022-09-21T19:06:36;6.37;;;3.50;;
16504;SDS011;8365;51.030;4.696;2022-09-21T19:09:33;5.63;;;4.63;;
16504;SDS011;8365;51.030;4.696;2022-09-21T19:12:24;6.50;;;5.07;;
16504;SDS011;8365;51.030;4.696;2022-09-21T19:15:03;8.50;;;6.80;;
16504;SDS011;8365;51.030;4.696;2022-09-21T19:20:55;8.23;;;6.13;;
16504;SDS011;8365;51.030;4.696;2022-09-21T19:32:01;12.77;;;8.80;;
16504;SDS011;8365;51.030;4.696;2022-09-21T19:34:33;10.93;;;9.47;;
16504;SDS011;8365;51.030;4.696;2022-09-21T19:37:04;13.80;;;9.20;;
16504;SDS011;8365;51.030;4.696;2022-09-21T19:39:35;15.63;;;14.00;;
16504;SDS011;8365;51.030;4.696;2022-09-21T19:45:04;16.03;;;12.70;;
16504;SDS011;8365;51.030;4.696;2022-09-21T19:47:42;13.27;;;11.87;;
16504;SDS011;8365;51.030;4.696;2022-09-21T19:50:29;13.13;;;11.43;;
16504;SDS011;8365;51.030;4.696;2022-09-21T19:53:08;22.30;;;14.17;;
16504;SDS011;8365;51.030;4.696;2022-09-21T19:55:59;15.37;;;13.33;;
16504;SDS011;8365;51.030;4.696;2022-09-21T19:58:48;17.47;;;12.70;;
16504;SDS011;8365;51.030;4.696;2022-09-21T20:01:39;14.27;;;12.87;;
16504;SDS011;8365;51.030;4.696;2022-09-21T20:04:13;14.93;;;13.43;;